sensor_id;sensor_type;location;lat;lon;timestamp;P1;durP1;ratioP1;P2;durP2;ratioP2
31043;SDS011;17710;52.520;13.352;2022-08-20T00:00:27;15.52;;;13.93;;
31043;SDS011;17710;52.520;13.352;2022-08-20T00:02:56;17.45;;;13.32;;
31043;SDS011;17710;52.520;13.352;2022-08-20T00:05:27;15.85;;;12.75;;
31043;SDS011;17710;52.520;13.352;2022-08-20T00:07:56;14.98;;;13.32;;
31043;SDS011;17710;52.520;13.352;2022-08-20T00:10:25;16.05;;;14.18;;
31043;SDS011;17710;52.520;13.352;2022-08-20T00:12:52;18.58;;;13.88;;
31043;SDS011;17710;52.520;13.352;2022-08-20T00:15:20;15.88;;;14.27;;
31043;SDS011;17710;52.520;13.352;2022-08-20T00:17:50;18.02;;;15.85;;
31043;SDS011;17710;52.520;13.352;2022-08-20T00:20:19;15.65;;;14.05;;
31043;SDS011;17710;52.520;13.352;2022-08-20T00:22:47;15.88;;;13.30;;
31043;SDS011;17710;52.520;13.352;2022-08-20T00:25:15;16.60;;;14.68;;
31043;SDS011;17710;52.520;13.352;2022-08-20T00:27:42;17.48;;;14.77;;
31043;SDS011;17710;52.520;13.352;2022-08-20T00:30:10;16.45;;;14.55;;
31043;SDS011;17710;52.520;13.352;2022-08-20T00:32:42;17.48;;;15.60;;
31043;SDS011;17710;52.520;13.352;2022-08-20T00:35:11;18.88;;;14.40;;
31043;SDS011;17710;52.520;13.352;2022-08-20T00:37:39;16.23;;;14.30;;
31043;SDS011;17710;52.520;13.352;2022-08-20T00:40:06;17.30;;;14.30;;
31043;SDS011;17710;52.520;13.352;2022-08-20T00:42:39;16.27;;;14.07;;
31043;SDS011;17710;52.520;13.352;2022-08-20T00:45:06;17.27;;;14.57;;
31043;SDS011;17710;52.520;13.352;2022-08-20T00:47:33;18.02;;;14.23;;
31043;SDS011;17710;52.520;13.352;2022-08-20T00:49:59;17.88;;;14.02;;
31043;SDS011;17710;52.520;13.352;2022-08-20T00:52:27;17.77;;;14.95;;
31043;SDS011;17710;52.520;13.352;2022-08-20T00:54:54;17.27;;;14.65;;
31043;SDS011;17710;52.520;13.352;2022-08-20T00:57:25;17.52;;;14.77;;
31043;SDS011;17710;52.520;13.352;2022-08-20T00:59:54;15.02;;;13.43;;
31043;SDS011;17710;52.520;13.352;2022-08-20T01:02:23;15.75;;;13.18;;
31043;SDS011;17710;52.520;13.352;2022-08-20T01:04:51;16.67;;;14.23;;
31043;SDS011;17710;52.520;13.352;2022-08-20T01:07:19;15.43;;;13.10;;
31043;SDS011;17710;52.520;13.352;2022-08-20T01:09:49;14.00;;;12.00;;
31043;SDS011;17710;52.520;13.352;2022-08-20T01:12:16;15.25;;;12.50;;
31043;SDS011;17710;52.520;13.352;2022-08-20T01:14:43;14.00;;;12.60;;
31043;SDS011;17710;52.520;13.352;2022-08-20T01:17:12;17.40;;;12.55;;
31043;SDS011;17710;52.520;13.352;2022-08-20T01:19:44;15.07;;;12.60;;
31043;SDS011;17710;52.520;13.352;2022-08-20T01:22:14;13.65;;;12.35;;
31043;SDS011;17710;52.520;13.352;2022-08-20T01:25:07;13.93;;;12.30;;
31043;SDS011;17710;52.520;13.352;2022-08-20T01:27:39;15.10;;;12.98;;
31043;SDS011;17710;52.520;13.352;2022-08-20T01:30:07;13.68;;;12.23;;
31043;SDS011;17710;52.520;13.352;2022-08-20T01:32:34;14.48;;;12.75;;
31043;SDS011;17710;52.520;13.352;2022-08-20T01:35:00;16.23;;;12.93;;
31043;SDS011;17710;52.520;13.352;2022-08-20T01:37:26;15.27;;;13.13;;
31043;SDS011;17710;52.520;13.352;2022-08-20T01:39:53;14.52;;;12.88;;
31043;SDS011;17710;52.520;13.352;2022-08-20T01:42:19;14.15;;;12.70;;
31043;SDS011;17710;52.520;13.352;2022-08-20T01:44:54;14.32;;;12.68;;
31043;SDS011;17710;52.520;13.352;2022-08-20T01:47:22;12.98;;;11.68;;
31043;SDS011;17710;52.520;13.352;2022-08-20T01:49:51;15.85;;;10.63;;
31043;SDS011;17710;52.520;13.352;2022-08-20T01:52:21;11.95;;;10.75;;
31043;SDS011;17710;52.520;13.352;2022-08-20T01:54:53;11.40;;;10.30;;
31043;SDS011;17710;52.520;13.352;2022-08-20T01:57:19;14.60;;;10.65;;
31043;SDS011;17710;52.520;13.352;2022-08-20T01:59:51;11.23;;;10.10;;
31043;SDS011;17710;52.520;13.352;2022-08-20T02:02:19;9.93;;;8.93;;
31043;SDS011;17710;52.520;13.352;2022-08-20T02:04:45;10.27;;;9.27;;
31043;SDS011;17710;52.520;13.352;2022-08-20T02:07:12;9.25;;;8.35;;
31043;SDS011;17710;52.520;13.352;2022-08-20T02:09:40;10.90;;;9.90;;
31043;SDS011;17710;52.520;13.352;2022-08-20T02:12:08;10.88;;;9.63;;
31043;SDS011;17710;52.520;13.352;2022-08-20T02:14:38;9.98;;;9.07;;
31043;SDS011;17710;52.520;13.352;2022-08-20T02:17:06;10.68;;;9.55;;
31043;SDS011;17710;52.520;13.352;2022-08-20T02:19:36;14.10;;;9.80;;
31043;SDS011;17710;52.520;13.352;2022-08-20T02:22:07;12.25;;;10.15;;
31043;SDS011;17710;52.520;13.352;2022-08-20T02:24:49;11.57;;;10.30;;
31043;SDS011;17710;52.520;13.352;2022-08-20T02:27:15;12.75;;;11.35;;
31043;SDS011;17710;52.520;13.352;2022-08-20T02:29:43;12.30;;;11.10;;
31043;SDS011;17710;52.520;13.352;2022-08-20T02:32:10;12.65;;;11.32;;
31043;SDS011;17710;52.520;13.352;2022-08-20T02:34:38;13.15;;;11.75;;
31043;SDS011;17710;52.520;13.352;2022-08-20T02:37:05;13.40;;;11.88;;
31043;SDS011;17710;52.520;13.352;2022-08-20T02:39:32;13.57;;;12.18;;
31043;SDS011;17710;52.520;13.352;2022-08-20T02:41:59;14.88;;;13.40;;
31043;SDS011;17710;52.520;13.352;2022-08-20T02:44:27;12.55;;;11.40;;
31043;SDS011;17710;52.520;13.352;2022-08-20T02:46:54;13.68;;;11.80;;
31043;SDS011;17710;52.520;13.352;2022-08-20T02:49:21;14.40;;;12.90;;
31043;SDS011;17710;52.520;13.352;2022-08-20T02:51:48;15.50;;;13.52;;
31043;SDS011;17710;52.520;13.352;2022-08-20T02:54:15;14.70;;;13.15;;
31043;SDS011;17710;52.520;13.352;2022-08-20T02:56:41;16.13;;;13.60;;
31043;SDS011;17710;52.520;13.352;2022-08-20T02:59:08;15.57;;;13.18;;
31043;SDS011;17710;52.520;13.352;2022-08-20T03:01:35;15.70;;;14.07;;
31043;SDS011;17710;52.520;13.352;2022-08-20T03:04:02;17.25;;;14.93;;
31043;SDS011;17710;52.520;13.352;2022-08-20T03:06:29;19.10;;;14.95;;
31043;SDS011;17710;52.520;13.352;2022-08-20T03:08:57;17.60;;;14.90;;
31043;SDS011;17710;52.520;13.352;2022-08-20T03:11:24;21.95;;;16.95;;
31043;SDS011;17710;52.520;13.352;2022-08-20T03:13:51;20.92;;;15.50;;
31043;SDS011;17710;52.520;13.352;2022-08-20T03:16:17;20.98;;;16.45;;
31043;SDS011;17710;52.520;13.352;2022-08-20T03:18:44;22.40;;;17.60;;
31043;SDS011;17710;52.520;13.352;2022-08-20T03:21:12;21.38;;;16.50;;
31043;SDS011;17710;52.520;13.352;2022-08-20T03:23:39;22.35;;;18.85;;
31043;SDS011;17710;52.520;13.352;2022-08-20T03:26:08;25.05;;;19.63;;
31043;SDS011;17710;52.520;13.352;2022-08-20T03:28:36;24.60;;;18.90;;
31043;SDS011;17710;52.520;13.352;2022-08-20T03:31:03;24.02;;;19.00;;
31043;SDS011;17710;52.520;13.352;2022-08-20T03:33:30;24.42;;;20.02;;
31043;SDS011;17710;52.520;13.352;2022-08-20T03:35:59;23.95;;;19.98;;
31043;SDS011;17710;52.520;13.352;2022-08-20T03:38:25;24.17;;;20.33;;
31043;SDS011;17710;52.520;13.352;2022-08-20T03:40:52;24.25;;;19.85;;
31043;SDS011;17710;52.520;13.352;2022-08-20T03:43:19;29.77;;;21.83;;
31043;SDS011;17710;52.520;13.352;2022-08-20T03:45:46;24.85;;;20.30;;
31043;SDS011;17710;52.520;13.352;2022-08-20T03:48:13;26.00;;;21.02;;
31043;SDS011;17710;52.520;13.352;2022-08-20T03:50:42;25.73;;;20.98;;
31043;SDS011;17710;52.520;13.352;2022-08-20T03:53:08;27.75;;;21.60;;
31043;SDS011;17710;52.520;13.352;2022-08-20T03:55:36;32.60;;;21.38;;
31043;SDS011;17710;52.520;13.352;2022-08-20T03:58:05;29.08;;;22.50;;
31043;SDS011;17710;52.520;13.352;2022-08-20T04:00:37;26.02;;;20.73;;
31043;SDS011;17710;52.520;13.352;2022-08-20T04:03:05;28.80;;;22.15;;
31043;SDS011;17710;52.520;13.352;2022-08-20T04:05:33;28.10;;;22.02;;
31043;SDS011;17710;52.520;13.352;2022-08-20T04:08:05;27.63;;;21.83;;
31043;SDS011;17710;52.520;13.352;2022-08-20T04:10:33;29.15;;;21.73;;
31043;SDS011;17710;52.520;13.352;2022-08-20T04:13:00;26.13;;;21.00;;
31043;SDS011;17710;52.520;13.352;2022-08-20T04:15:26;29.92;;;21.20;;
31043;SDS011;17710;52.520;13.352;2022-08-20T04:17:54;28.60;;;21.80;;
31043;SDS011;17710;52.520;13.352;2022-08-20T04:20:21;28.38;;;21.38;;
31043;SDS011;17710;52.520;13.352;2022-08-20T04:22:50;26.02;;;21.08;;
31043;SDS011;17710;52.520;13.352;2022-08-20T04:25:17;29.00;;;22.05;;
31043;SDS011;17710;52.520;13.352;2022-08-20T04:27:43;29.98;;;21.83;;
31043;SDS011;17710;52.520;13.352;2022-08-20T04:30:11;26.50;;;21.40;;
31043;SDS011;17710;52.520;13.352;2022-08-20T04:32:39;28.05;;;22.23;;
31043;SDS011;17710;52.520;13.352;2022-08-20T04:35:07;26.42;;;21.48;;
31043;SDS011;17710;52.520;13.352;2022-08-20T04:37:38;29.15;;;21.85;;
31043;SDS011;17710;52.520;13.352;2022-08-20T04:40:07;31.75;;;21.75;;
31043;SDS011;17710;52.520;13.352;2022-08-20T04:42:55;29.38;;;21.45;;
31043;SDS011;17710;52.520;13.352;2022-08-20T04:45:21;28.77;;;21.27;;
31043;SDS011;17710;52.520;13.352;2022-08-20T04:47:49;25.38;;;20.20;;
31043;SDS011;17710;52.520;13.352;2022-08-20T04:50:18;26.20;;;20.05;;
31043;SDS011;17710;52.520;13.352;2022-08-20T04:52:45;29.15;;;22.00;;
31043;SDS011;17710;52.520;13.352;2022-08-20T04:55:12;26.65;;;21.17;;
31043;SDS011;17710;52.520;13.352;2022-08-20T04:57:41;29.70;;;21.15;;
31043;SDS011;17710;52.520;13.352;2022-08-20T05:00:10;28.67;;;21.08;;
31043;SDS011;17710;52.520;13.352;2022-08-20T05:02:41;26.60;;;21.63;;
31043;SDS011;17710;52.520;13.352;2022-08-20T05:05:08;25.80;;;20.88;;
31043;SDS011;17710;52.520;13.352;2022-08-20T05:07:40;29.15;;;22.17;;
31043;SDS011;17710;52.520;13.352;2022-08-20T05:10:10;28.92;;;22.05;;
31043;SDS011;17710;52.520;13.352;2022-08-20T05:12:39;27.08;;;21.75;;
31043;SDS011;17710;52.520;13.352;2022-08-20T05:15:06;26.50;;;21.70;;
31043;SDS011;17710;52.520;13.352;2022-08-20T05:17:35;43.15;;;23.05;;
31043;SDS011;17710;52.520;13.352;2022-08-20T05:20:01;27.98;;;21.35;;
31043;SDS011;17710;52.520;13.352;2022-08-20T05:22:29;31.65;;;23.00;;
31043;SDS011;17710;52.520;13.352;2022-08-20T05:24:57;25.42;;;20.20;;
31043;SDS011;17710;52.520;13.352;2022-08-20T05:27:25;28.25;;;20.70;;
31043;SDS011;17710;52.520;13.352;2022-08-20T05:29:52;29.63;;;23.30;;
31043;SDS011;17710;52.520;13.352;2022-08-20T05:32:20;27.77;;;20.95;;
31043;SDS011;17710;52.520;13.352;2022-08-20T05:34:46;27.80;;;21.05;;
31043;SDS011;17710;52.520;13.352;2022-08-20T05:37:13;28.08;;;21.55;;
31043;SDS011;17710;52.520;13.352;2022-08-20T05:39:39;29.00;;;21.05;;
31043;SDS011;17710;52.520;13.352;2022-08-20T05:42:07;35.30;;;26.65;;
31043;SDS011;17710;52.520;13.352;2022-08-20T05:44:33;29.27;;;21.20;;
31043;SDS011;17710;52.520;13.352;2022-08-20T05:47:02;28.92;;;21.90;;
31043;SDS011;17710;52.520;13.352;2022-08-20T05:49:28;27.92;;;23.27;;
31043;SDS011;17710;52.520;13.352;2022-08-20T05:51:55;28.83;;;22.00;;
31043;SDS011;17710;52.520;13.352;2022-08-20T05:54:22;29.50;;;22.92;;
31043;SDS011;17710;52.520;13.352;2022-08-20T05:56:48;30.45;;;22.52;;
31043;SDS011;17710;52.520;13.352;2022-08-20T05:59:16;26.90;;;21.65;;
31043;SDS011;17710;52.520;13.352;2022-08-20T06:01:43;27.52;;;21.15;;
31043;SDS011;17710;52.520;13.352;2022-08-20T06:04:09;30.65;;;22.45;;
31043;SDS011;17710;52.520;13.352;2022-08-20T06:06:52;30.42;;;22.75;;
31043;SDS011;17710;52.520;13.352;2022-08-20T06:09:21;31.40;;;21.60;;
31043;SDS011;17710;52.520;13.352;2022-08-20T06:11:49;27.63;;;21.30;;
31043;SDS011;17710;52.520;13.352;2022-08-20T06:14:16;27.13;;;22.23;;
31043;SDS011;17710;52.520;13.352;2022-08-20T06:16:44;26.52;;;20.65;;
31043;SDS011;17710;52.520;13.352;2022-08-20T06:19:11;27.75;;;20.27;;
31043;SDS011;17710;52.520;13.352;2022-08-20T06:21:38;24.70;;;21.10;;
31043;SDS011;17710;52.520;13.352;2022-08-20T06:24:05;30.45;;;22.02;;
31043;SDS011;17710;52.520;13.352;2022-08-20T06:26:32;26.95;;;21.30;;
31043;SDS011;17710;52.520;13.352;2022-08-20T06:29:00;26.63;;;21.17;;
31043;SDS011;17710;52.520;13.352;2022-08-20T06:31:28;26.92;;;20.77;;
31043;SDS011;17710;52.520;13.352;2022-08-20T06:33:54;28.40;;;21.83;;
31043;SDS011;17710;52.520;13.352;2022-08-20T06:36:24;26.60;;;21.08;;
31043;SDS011;17710;52.520;13.352;2022-08-20T06:38:51;28.75;;;20.48;;
31043;SDS011;17710;52.520;13.352;2022-08-20T06:41:20;26.23;;;20.52;;
31043;SDS011;17710;52.520;13.352;2022-08-20T06:43:46;28.60;;;21.90;;
31043;SDS011;17710;52.520;13.352;2022-08-20T06:46:13;27.75;;;20.33;;
31043;SDS011;17710;52.520;13.352;2022-08-20T06:48:40;26.70;;;21.48;;
31043;SDS011;17710;52.520;13.352;2022-08-20T06:51:07;29.10;;;21.60;;
31043;SDS011;17710;52.520;13.352;2022-08-20T06:53:34;27.75;;;21.15;;
31043;SDS011;17710;52.520;13.352;2022-08-20T06:56:01;26.30;;;21.15;;
31043;SDS011;17710;52.520;13.352;2022-08-20T06:58:28;27.40;;;21.05;;
31043;SDS011;17710;52.520;13.352;2022-08-20T07:00:55;31.90;;;22.25;;
31043;SDS011;17710;52.520;13.352;2022-08-20T07:03:22;28.58;;;21.63;;
31043;SDS011;17710;52.520;13.352;2022-08-20T07:05:50;28.85;;;21.15;;
31043;SDS011;17710;52.520;13.352;2022-08-20T07:08:16;28.00;;;22.35;;
31043;SDS011;17710;52.520;13.352;2022-08-20T07:10:52;29.23;;;21.02;;
31043;SDS011;17710;52.520;13.352;2022-08-20T07:13:18;28.85;;;22.10;;
31043;SDS011;17710;52.520;13.352;2022-08-20T07:15:44;29.08;;;22.45;;
31043;SDS011;17710;52.520;13.352;2022-08-20T07:18:11;28.77;;;22.23;;
31043;SDS011;17710;52.520;13.352;2022-08-20T07:20:39;30.60;;;22.67;;
31043;SDS011;17710;52.520;13.352;2022-08-20T07:23:07;30.20;;;23.23;;
31043;SDS011;17710;52.520;13.352;2022-08-20T07:25:34;29.85;;;22.77;;
31043;SDS011;17710;52.520;13.352;2022-08-20T07:28:01;31.33;;;24.27;;
31043;SDS011;17710;52.520;13.352;2022-08-20T07:30:29;31.77;;;24.40;;
31043;SDS011;17710;52.520;13.352;2022-08-20T07:33:13;31.92;;;24.13;;
31043;SDS011;17710;52.520;13.352;2022-08-20T07:35:40;29.98;;;23.45;;
31043;SDS011;17710;52.520;13.352;2022-08-20T07:38:13;30.92;;;24.20;;
31043;SDS011;17710;52.520;13.352;2022-08-20T07:40:47;27.48;;;22.58;;
31043;SDS011;17710;52.520;13.352;2022-08-20T07:43:14;34.08;;;23.70;;
31043;SDS011;17710;52.520;13.352;2022-08-20T07:45:41;35.85;;;25.17;;
31043;SDS011;17710;52.520;13.352;2022-08-20T07:48:08;36.60;;;25.30;;
31043;SDS011;17710;52.520;13.352;2022-08-20T07:50:37;34.10;;;25.38;;
31043;SDS011;17710;52.520;13.352;2022-08-20T07:53:04;32.70;;;24.25;;
31043;SDS011;17710;52.520;13.352;2022-08-20T07:55:32;33.20;;;24.92;;
31043;SDS011;17710;52.520;13.352;2022-08-20T07:58:04;36.55;;;26.00;;
31043;SDS011;17710;52.520;13.352;2022-08-20T08:00:33;36.47;;;26.25;;
31043;SDS011;17710;52.520;13.352;2022-08-20T08:02:59;38.92;;;28.48;;
31043;SDS011;17710;52.520;13.352;2022-08-20T08:05:26;34.95;;;25.92;;
31043;SDS011;17710;52.520;13.352;2022-08-20T08:07:53;33.92;;;27.10;;
31043;SDS011;17710;52.520;13.352;2022-08-20T08:10:21;34.22;;;26.38;;
31043;SDS011;17710;52.520;13.352;2022-08-20T08:12:51;38.03;;;27.05;;
31043;SDS011;17710;52.520;13.352;2022-08-20T08:15:20;36.70;;;27.38;;
31043;SDS011;17710;52.520;13.352;2022-08-20T08:17:49;36.60;;;26.33;;
31043;SDS011;17710;52.520;13.352;2022-08-20T08:20:18;37.65;;;26.75;;
31043;SDS011;17710;52.520;13.352;2022-08-20T08:22:50;39.03;;;28.83;;
31043;SDS011;17710;52.520;13.352;2022-08-20T08:25:40;37.33;;;28.30;;
31043;SDS011;17710;52.520;13.352;2022-08-20T08:28:08;38.28;;;29.02;;
31043;SDS011;17710;52.520;13.352;2022-08-20T08:30:36;40.67;;;29.00;;
31043;SDS011;17710;52.520;13.352;2022-08-20T08:33:02;44.92;;;30.15;;
31043;SDS011;17710;52.520;13.352;2022-08-20T08:35:47;38.97;;;28.67;;
31043;SDS011;17710;52.520;13.352;2022-08-20T08:38:14;39.15;;;29.88;;
31043;SDS011;17710;52.520;13.352;2022-08-20T08:40:41;41.35;;;30.52;;
31043;SDS011;17710;52.520;13.352;2022-08-20T08:43:09;36.30;;;28.75;;
31043;SDS011;17710;52.520;13.352;2022-08-20T08:45:40;42.55;;;29.80;;
31043;SDS011;17710;52.520;13.352;2022-08-20T08:48:09;40.05;;;29.27;;
31043;SDS011;17710;52.520;13.352;2022-08-20T08:50:37;43.67;;;30.10;;
31043;SDS011;17710;52.520;13.352;2022-08-20T08:53:06;40.03;;;29.52;;
31043;SDS011;17710;52.520;13.352;2022-08-20T08:55:35;42.42;;;29.40;;
31043;SDS011;17710;52.520;13.352;2022-08-20T08:58:02;38.35;;;29.85;;
31043;SDS011;17710;52.520;13.352;2022-08-20T09:00:30;39.78;;;28.48;;
31043;SDS011;17710;52.520;13.352;2022-08-20T09:03:00;36.97;;;28.73;;
31043;SDS011;17710;52.520;13.352;2022-08-20T09:05:31;40.70;;;28.25;;
31043;SDS011;17710;52.520;13.352;2022-08-20T09:08:04;40.53;;;29.42;;
31043;SDS011;17710;52.520;13.352;2022-08-20T09:10:35;39.33;;;29.65;;
31043;SDS011;17710;52.520;13.352;2022-08-20T09:13:02;40.33;;;28.25;;
31043;SDS011;17710;52.520;13.352;2022-08-20T09:15:30;41.53;;;30.25;;
31043;SDS011;17710;52.520;13.352;2022-08-20T09:17:57;40.85;;;29.10;;
31043;SDS011;17710;52.520;13.352;2022-08-20T09:20:23;42.80;;;29.58;;
31043;SDS011;17710;52.520;13.352;2022-08-20T09:22:50;40.05;;;29.13;;
31043;SDS011;17710;52.520;13.352;2022-08-20T09:25:16;38.45;;;29.05;;
31043;SDS011;17710;52.520;13.352;2022-08-20T09:27:43;34.22;;;26.80;;
31043;SDS011;17710;52.520;13.352;2022-08-20T09:30:10;39.10;;;28.10;;
31043;SDS011;17710;52.520;13.352;2022-08-20T09:32:39;33.25;;;26.00;;
31043;SDS011;17710;52.520;13.352;2022-08-20T09:35:07;35.97;;;26.88;;
31043;SDS011;17710;52.520;13.352;2022-08-20T09:37:34;35.05;;;26.60;;
31043;SDS011;17710;52.520;13.352;2022-08-20T09:40:01;29.90;;;24.30;;
31043;SDS011;17710;52.520;13.352;2022-08-20T09:42:29;33.83;;;24.33;;
31043;SDS011;17710;52.520;13.352;2022-08-20T09:44:57;31.65;;;24.55;;
31043;SDS011;17710;52.520;13.352;2022-08-20T09:47:25;31.42;;;23.88;;
31043;SDS011;17710;52.520;13.352;2022-08-20T09:49:53;31.92;;;23.38;;
31043;SDS011;17710;52.520;13.352;2022-08-20T09:52:22;28.60;;;22.52;;
31043;SDS011;17710;52.520;13.352;2022-08-20T09:54:51;29.83;;;21.60;;
31043;SDS011;17710;52.520;13.352;2022-08-20T09:57:26;31.88;;;23.30;;
31043;SDS011;17710;52.520;13.352;2022-08-20T09:59:55;30.70;;;21.63;;
31043;SDS011;17710;52.520;13.352;2022-08-20T10:02:24;28.05;;;21.20;;
31043;SDS011;17710;52.520;13.352;2022-08-20T10:04:50;28.38;;;20.58;;
31043;SDS011;17710;52.520;13.352;2022-08-20T10:07:18;27.05;;;21.33;;
31043;SDS011;17710;52.520;13.352;2022-08-20T10:09:45;28.40;;;20.42;;
31043;SDS011;17710;52.520;13.352;2022-08-20T10:12:11;25.30;;;19.70;;
31043;SDS011;17710;52.520;13.352;2022-08-20T10:14:38;26.50;;;20.27;;
31043;SDS011;17710;52.520;13.352;2022-08-20T10:17:04;24.20;;;18.73;;
31043;SDS011;17710;52.520;13.352;2022-08-20T10:19:36;25.33;;;18.92;;
31043;SDS011;17710;52.520;13.352;2022-08-20T10:22:02;24.42;;;17.80;;
31043;SDS011;17710;52.520;13.352;2022-08-20T10:24:31;22.75;;;17.23;;
31043;SDS011;17710;52.520;13.352;2022-08-20T10:26:58;21.70;;;16.85;;
31043;SDS011;17710;52.520;13.352;2022-08-20T10:29:27;19.48;;;15.98;;
31043;SDS011;17710;52.520;13.352;2022-08-20T10:31:54;19.27;;;16.38;;
31043;SDS011;17710;52.520;13.352;2022-08-20T10:34:22;19.45;;;15.63;;
31043;SDS011;17710;52.520;13.352;2022-08-20T10:36:49;19.15;;;15.57;;
31043;SDS011;17710;52.520;13.352;2022-08-20T10:39:15;19.33;;;15.48;;
31043;SDS011;17710;52.520;13.352;2022-08-20T10:41:44;20.50;;;15.95;;
31043;SDS011;17710;52.520;13.352;2022-08-20T10:44:10;20.80;;;16.08;;
31043;SDS011;17710;52.520;13.352;2022-08-20T10:46:36;20.33;;;15.40;;
31043;SDS011;17710;52.520;13.352;2022-08-20T10:49:03;17.90;;;14.15;;
31043;SDS011;17710;52.520;13.352;2022-08-20T10:51:29;16.83;;;14.35;;
31043;SDS011;17710;52.520;13.352;2022-08-20T10:53:56;17.67;;;14.07;;
31043;SDS011;17710;52.520;13.352;2022-08-20T10:56:22;21.98;;;14.25;;
31043;SDS011;17710;52.520;13.352;2022-08-20T10:58:50;15.35;;;13.20;;
31043;SDS011;17710;52.520;13.352;2022-08-20T11:01:16;16.40;;;11.85;;
31043;SDS011;17710;52.520;13.352;2022-08-20T11:03:44;15.68;;;12.05;;
31043;SDS011;17710;52.520;13.352;2022-08-20T11:06:12;15.65;;;11.13;;
31043;SDS011;17710;52.520;13.352;2022-08-20T11:08:38;10.90;;;9.77;;
31043;SDS011;17710;52.520;13.352;2022-08-20T11:11:05;13.40;;;10.20;;
31043;SDS011;17710;52.520;13.352;2022-08-20T11:13:32;12.73;;;10.18;;
31043;SDS011;17710;52.520;13.352;2022-08-20T11:16:00;12.77;;;9.85;;
31043;SDS011;17710;52.520;13.352;2022-08-20T11:18:27;12.40;;;9.65;;
31043;SDS011;17710;52.520;13.352;2022-08-20T11:20:54;13.07;;;9.93;;
31043;SDS011;17710;52.520;13.352;2022-08-20T11:23:21;10.20;;;9.10;;
31043;SDS011;17710;52.520;13.352;2022-08-20T11:25:48;12.68;;;9.82;;
31043;SDS011;17710;52.520;13.352;2022-08-20T11:28:14;11.90;;;9.23;;
31043;SDS011;17710;52.520;13.352;2022-08-20T11:30:41;11.00;;;9.00;;
31043;SDS011;17710;52.520;13.352;2022-08-20T11:33:09;11.02;;;8.68;;
31043;SDS011;17710;52.520;13.352;2022-08-20T11:35:36;12.52;;;8.45;;
31043;SDS011;17710;52.520;13.352;2022-08-20T11:38:03;10.63;;;9.00;;
31043;SDS011;17710;52.520;13.352;2022-08-20T11:40:29;12.00;;;7.95;;
31043;SDS011;17710;52.520;13.352;2022-08-20T11:42:56;14.13;;;7.97;;
31043;SDS011;17710;52.520;13.352;2022-08-20T11:45:23;9.38;;;7.95;;
31043;SDS011;17710;52.520;13.352;2022-08-20T11:47:50;10.85;;;8.20;;
31043;SDS011;17710;52.520;13.352;2022-08-20T11:50:19;9.82;;;7.03;;
31043;SDS011;17710;52.520;13.352;2022-08-20T11:52:46;9.30;;;6.85;;
31043;SDS011;17710;52.520;13.352;2022-08-20T11:55:13;7.97;;;7.18;;
31043;SDS011;17710;52.520;13.352;2022-08-20T11:57:42;7.22;;;6.32;;
31043;SDS011;17710;52.520;13.352;2022-08-20T12:00:11;7.18;;;6.32;;
31043;SDS011;17710;52.520;13.352;2022-08-20T12:02:39;6.47;;;5.88;;
31043;SDS011;17710;52.520;13.352;2022-08-20T12:05:06;7.10;;;6.00;;
31043;SDS011;17710;52.520;13.352;2022-08-20T12:07:35;7.10;;;6.22;;
31043;SDS011;17710;52.520;13.352;2022-08-20T12:10:01;8.40;;;6.13;;
31043;SDS011;17710;52.520;13.352;2022-08-20T12:12:30;6.38;;;5.50;;
31043;SDS011;17710;52.520;13.352;2022-08-20T12:14:57;7.15;;;5.45;;
31043;SDS011;17710;52.520;13.352;2022-08-20T12:17:25;9.38;;;5.53;;
31043;SDS011;17710;52.520;13.352;2022-08-20T12:19:53;6.93;;;4.88;;
31043;SDS011;17710;52.520;13.352;2022-08-20T12:22:22;8.40;;;5.47;;
31043;SDS011;17710;52.520;13.352;2022-08-20T12:24:51;6.30;;;5.13;;
31043;SDS011;17710;52.520;13.352;2022-08-20T12:27:19;5.70;;;4.47;;
31043;SDS011;17710;52.520;13.352;2022-08-20T12:29:48;7.72;;;4.43;;
31043;SDS011;17710;52.520;13.352;2022-08-20T12:32:17;7.47;;;4.95;;
31043;SDS011;17710;52.520;13.352;2022-08-20T12:34:46;6.07;;;5.03;;
31043;SDS011;17710;52.520;13.352;2022-08-20T12:37:14;6.05;;;4.22;;
31043;SDS011;17710;52.520;13.352;2022-08-20T12:39:46;11.77;;;5.10;;
31043;SDS011;17710;52.520;13.352;2022-08-20T12:42:16;4.82;;;4.18;;
31043;SDS011;17710;52.520;13.352;2022-08-20T12:44:43;5.25;;;4.75;;
31043;SDS011;17710;52.520;13.352;2022-08-20T12:47:10;7.07;;;5.00;;
31043;SDS011;17710;52.520;13.352;2022-08-20T12:49:39;5.00;;;4.45;;
31043;SDS011;17710;52.520;13.352;2022-08-20T12:52:07;5.78;;;4.68;;
31043;SDS011;17710;52.520;13.352;2022-08-20T12:54:34;5.10;;;4.60;;
31043;SDS011;17710;52.520;13.352;2022-08-20T12:57:00;8.35;;;4.85;;
31043;SDS011;17710;52.520;13.352;2022-08-20T12:59:28;4.97;;;4.57;;
31043;SDS011;17710;52.520;13.352;2022-08-20T13:01:54;5.15;;;4.75;;
31043;SDS011;17710;52.520;13.352;2022-08-20T13:04:21;8.43;;;5.30;;
31043;SDS011;17710;52.520;13.352;2022-08-20T13:06:47;5.20;;;4.70;;
31043;SDS011;17710;52.520;13.352;2022-08-20T13:09:14;7.63;;;5.50;;
31043;SDS011;17710;52.520;13.352;2022-08-20T13:11:41;6.38;;;5.60;;
31043;SDS011;17710;52.520;13.352;2022-08-20T13:14:08;6.38;;;4.75;;
31043;SDS011;17710;52.520;13.352;2022-08-20T13:16:36;8.60;;;5.50;;
31043;SDS011;17710;52.520;13.352;2022-08-20T13:19:02;8.80;;;5.68;;
31043;SDS011;17710;52.520;13.352;2022-08-20T13:21:29;7.57;;;5.32;;
31043;SDS011;17710;52.520;13.352;2022-08-20T13:23:55;8.18;;;6.13;;
31043;SDS011;17710;52.520;13.352;2022-08-20T13:26:22;7.90;;;6.57;;
31043;SDS011;17710;52.520;13.352;2022-08-20T13:28:54;7.07;;;6.28;;
31043;SDS011;17710;52.520;13.352;2022-08-20T13:31:20;11.30;;;6.60;;
31043;SDS011;17710;52.520;13.352;2022-08-20T13:33:48;9.13;;;6.82;;
31043;SDS011;17710;52.520;13.352;2022-08-20T13:36:14;9.55;;;6.57;;
31043;SDS011;17710;52.520;13.352;2022-08-20T13:38:41;10.55;;;6.95;;
31043;SDS011;17710;52.520;13.352;2022-08-20T13:41:07;8.98;;;6.88;;
31043;SDS011;17710;52.520;13.352;2022-08-20T13:43:33;8.85;;;7.35;;
31043;SDS011;17710;52.520;13.352;2022-08-20T13:46:00;9.38;;;7.25;;
31043;SDS011;17710;52.520;13.352;2022-08-20T13:48:26;8.80;;;6.47;;
31043;SDS011;17710;52.520;13.352;2022-08-20T13:50:54;10.07;;;7.40;;
31043;SDS011;17710;52.520;13.352;2022-08-20T13:53:20;8.80;;;7.53;;
31043;SDS011;17710;52.520;13.352;2022-08-20T13:55:47;7.45;;;6.63;;
31043;SDS011;17710;52.520;13.352;2022-08-20T13:58:13;8.00;;;6.55;;
31043;SDS011;17710;52.520;13.352;2022-08-20T14:00:41;8.93;;;6.60;;
31043;SDS011;17710;52.520;13.352;2022-08-20T14:03:07;8.48;;;7.40;;
31043;SDS011;17710;52.520;13.352;2022-08-20T14:05:34;8.63;;;7.57;;
31043;SDS011;17710;52.520;13.352;2022-08-20T14:08:07;9.48;;;7.50;;
31043;SDS011;17710;52.520;13.352;2022-08-20T14:10:34;10.57;;;7.85;;
31043;SDS011;17710;52.520;13.352;2022-08-20T14:13:02;10.27;;;8.10;;
31043;SDS011;17710;52.520;13.352;2022-08-20T14:15:30;10.52;;;7.97;;
31043;SDS011;17710;52.520;13.352;2022-08-20T14:17:57;10.43;;;8.75;;